createdAt,value
2023-03-08T00:01:29.516Z,4.50
2023-03-08T00:04:16.457Z,4.70
2023-03-08T00:07:02.203Z,4.60
2023-03-08T00:09:47.586Z,4.60
2023-03-08T00:12:33.295Z,4.50
2023-03-08T00:15:19.284Z,4.60
2023-03-08T00:18:04.673Z,4.40
2023-03-08T00:20:59.430Z,4.60
2023-03-08T00:23:45.342Z,4.30
2023-03-08T00:26:31.118Z,4.60
2023-03-08T00:29:16.516Z,4.60
2023-03-08T00:32:02.211Z,4.60
2023-03-08T00:34:47.985Z,4.60
2023-03-08T00:37:35.214Z,4.20
2023-03-08T00:40:20.851Z,4.40
2023-03-08T00:43:06.328Z,4.40
2023-03-08T00:45:53.426Z,4.50
2023-03-08T00:48:41.143Z,4.30
2023-03-08T00:51:26.854Z,4.40
2023-03-08T00:54:13.810Z,4.20
2023-03-08T00:56:59.287Z,4.50
2023-03-08T00:59:45.013Z,4.50
2023-03-08T01:02:32.072Z,4.50
2023-03-08T01:05:17.588Z,4.40
2023-03-08T01:08:05.036Z,4.60
2023-03-08T01:10:52.742Z,4.70
2023-03-08T01:13:38.286Z,4.70
2023-03-08T01:16:27.889Z,4.40
2023-03-08T01:19:13.620Z,4.60
2023-03-08T01:22:00.746Z,4.60
2023-03-08T01:24:46.160Z,4.50
2023-03-08T01:27:33.154Z,4.60
2023-03-08T01:30:18.941Z,4.60
2023-03-08T01:33:04.659Z,4.70
2023-03-08T01:35:50.275Z,4.70
2023-03-08T01:38:36.236Z,4.60
2023-03-08T01:41:23.516Z,4.70
2023-03-08T01:44:14.580Z,4.50
2023-03-08T01:47:00.095Z,4.70
2023-03-08T01:50:02.612Z,4.50
2023-03-08T01:52:49.324Z,4.30
2023-03-08T01:55:35.600Z,4.30
2023-03-08T01:58:21.639Z,4.40
2023-03-08T02:01:08.490Z,4.50
2023-03-08T02:03:54.412Z,4.40
2023-03-08T02:06:41.039Z,4.20
2023-03-08T02:09:26.912Z,4.00
2023-03-08T02:12:13.097Z,4.20
2023-03-08T02:14:58.936Z,4.40
2023-03-08T02:17:47.740Z,4.10
2023-03-08T02:20:35.469Z,4.20
2023-03-08T02:23:27.135Z,4.30
2023-03-08T02:26:12.646Z,4.40
2023-03-08T02:28:58.162Z,4.40
2023-03-08T02:31:43.891Z,4.50
2023-03-08T02:34:29.494Z,4.40
2023-03-08T02:37:16.055Z,4.60
2023-03-08T02:40:02.721Z,4.60
2023-03-08T02:42:48.275Z,4.70
2023-03-08T02:45:34.081Z,4.60
2023-03-08T02:48:20.197Z,4.50
2023-03-08T02:51:06.321Z,4.30
2023-03-08T02:53:54.942Z,4.40
2023-03-08T02:56:41.777Z,4.50
2023-03-08T02:59:28.304Z,4.50
2023-03-08T03:02:14.408Z,4.60
2023-03-08T03:04:59.800Z,4.60
2023-03-08T03:07:46.574Z,4.40
2023-03-08T03:10:36.624Z,4.60
2023-03-08T03:13:23.520Z,4.40
2023-03-08T03:16:10.720Z,4.70
2023-03-08T03:18:56.940Z,4.80
2023-03-08T03:21:42.200Z,4.70
2023-03-08T03:24:27.967Z,4.70
2023-03-08T03:27:16.938Z,4.60
2023-03-08T03:30:03.913Z,4.60
2023-03-08T03:32:49.862Z,4.40
2023-03-08T03:35:39.891Z,4.50
2023-03-08T03:38:27.575Z,4.20
2023-03-08T03:41:14.174Z,4.50
2023-03-08T03:44:00.561Z,4.80
2023-03-08T03:46:48.479Z,5.00
2023-03-08T03:49:39.718Z,5.10
2023-03-08T03:52:25.377Z,5.20
2023-03-08T03:55:19.430Z,5.30
2023-03-08T03:58:06.478Z,5.10
2023-03-08T04:00:52.014Z,5.40
2023-03-08T04:03:48.508Z,5.30
2023-03-08T04:06:34.940Z,5.30
2023-03-08T04:09:20.334Z,5.30
2023-03-08T04:12:14.480Z,5.10
2023-03-08T04:15:00.114Z,5.30
2023-03-08T04:17:48.761Z,5.40
2023-03-08T04:20:35.354Z,5.60
2023-03-08T04:23:22.815Z,5.50
2023-03-08T04:26:08.781Z,5.70
2023-03-08T04:28:54.180Z,5.70
2023-03-08T04:31:40.523Z,5.90
2023-03-08T04:34:30.575Z,5.40
2023-03-08T04:37:18.107Z,5.20
2023-03-08T04:40:09.503Z,4.90
2023-03-08T04:43:01.485Z,5.20
2023-03-08T04:45:57.956Z,4.90
2023-03-08T04:48:44.035Z,4.40
2023-03-08T04:51:31.506Z,4.70
2023-03-08T04:54:23.159Z,5.00
2023-03-08T04:57:14.639Z,5.10
2023-03-08T05:00:00.704Z,5.10
2023-03-08T05:02:46.338Z,4.70
2023-03-08T05:05:36.644Z,4.80
2023-03-08T05:08:22.926Z,4.30
2023-03-08T05:11:14.337Z,4.20
2023-03-08T05:14:00.695Z,4.10
2023-03-08T05:16:47.535Z,3.90
2023-03-08T05:19:33.386Z,4.00
2023-03-08T05:22:19.188Z,4.40
2023-03-08T05:25:08.481Z,4.40
2023-03-08T05:27:55.116Z,4.20
2023-03-08T05:30:42.032Z,4.20
2023-03-08T05:33:29.650Z,3.80
2023-03-08T05:36:15.344Z,4.00
2023-03-08T05:39:02.517Z,4.20
2023-03-08T05:41:59.271Z,4.20
2023-03-08T05:44:51.516Z,4.10
2023-03-08T05:47:47.593Z,4.10
2023-03-08T05:50:33.167Z,4.00
2023-03-08T05:53:18.764Z,4.20
2023-03-08T05:56:09.648Z,4.20
2023-03-08T05:58:58.188Z,4.40
2023-03-08T06:01:47.341Z,4.50
2023-03-08T06:04:46.590Z,3.90
2023-03-08T06:07:34.265Z,3.70
2023-03-08T06:10:28.164Z,3.50
2023-03-08T06:13:14.124Z,3.70
2023-03-08T06:16:00.487Z,4.00
2023-03-08T06:18:48.893Z,4.00
2023-03-08T06:21:36.586Z,3.90
2023-03-08T06:24:23.442Z,3.70
2023-03-08T06:27:09.882Z,4.00
2023-03-08T06:29:58.134Z,3.80
2023-03-08T06:32:43.938Z,3.80
2023-03-08T06:35:31.095Z,3.60
2023-03-08T06:38:19.935Z,3.60
2023-03-08T06:41:06.018Z,3.70
2023-03-08T06:43:51.843Z,3.70
2023-03-08T06:46:37.451Z,3.80
2023-03-08T06:49:23.456Z,4.00
2023-03-08T06:52:10.491Z,4.00
2023-03-08T06:54:55.856Z,4.20
2023-03-08T06:57:41.179Z,4.10
2023-03-08T07:00:27.076Z,4.00
2023-03-08T07:03:13.028Z,3.90
2023-03-08T07:05:58.861Z,3.60
2023-03-08T07:08:45.897Z,3.80
2023-03-08T07:11:33.601Z,4.10
2023-03-08T07:14:19.341Z,3.60
2023-03-08T07:17:04.895Z,3.80
2023-03-08T07:19:50.622Z,4.00
2023-03-08T07:22:36.080Z,3.80
2023-03-08T07:25:22.906Z,3.80
2023-03-08T07:28:08.624Z,4.10
2023-03-08T07:30:54.072Z,3.70
2023-03-08T07:33:39.462Z,4.10
2023-03-08T07:36:25.317Z,3.90
2023-03-08T07:39:10.946Z,4.20
2023-03-08T07:41:58.089Z,4.40
2023-03-08T07:44:43.470Z,4.80
2023-03-08T07:47:29.111Z,5.00
2023-03-08T07:50:14.789Z,4.80
2023-03-08T07:53:00.223Z,4.80
2023-03-08T07:55:45.801Z,4.80
2023-03-08T07:58:32.956Z,4.70
2023-03-08T08:01:18.472Z,4.60
2023-03-08T08:04:04.595Z,4.70
2023-03-08T08:06:50.289Z,4.90
2023-03-08T08:09:37.461Z,4.70
2023-03-08T08:12:23.568Z,4.50
2023-03-08T08:15:11.477Z,4.50
2023-03-08T08:17:57.372Z,4.60
2023-03-08T08:20:44.441Z,4.80
2023-03-08T08:23:30.110Z,4.80
2023-03-08T08:26:17.416Z,4.60
2023-03-08T08:29:02.661Z,4.70
2023-03-08T08:31:49.576Z,4.80
2023-03-08T08:34:35.128Z,4.90
2023-03-08T08:37:20.609Z,5.00
2023-03-08T08:40:10.420Z,5.30
2023-03-08T08:42:56.375Z,5.30
2023-03-08T08:45:45.138Z,5.30
2023-03-08T08:48:34.988Z,5.20
2023-03-08T08:51:20.699Z,5.20
2023-03-08T08:54:06.229Z,5.20
2023-03-08T08:56:51.629Z,5.00
2023-03-08T08:59:37.148Z,4.80
2023-03-08T09:02:22.725Z,4.60
2023-03-08T09:05:10.909Z,4.60
2023-03-08T09:08:00.932Z,4.60
2023-03-08T09:10:46.524Z,4.80
2023-03-08T09:13:31.977Z,4.90
2023-03-08T09:16:18.657Z,5.00
2023-03-08T09:19:04.698Z,4.80
2023-03-08T09:21:51.231Z,5.00
2023-03-08T09:24:36.834Z,4.80
2023-03-08T09:27:22.619Z,4.90
2023-03-08T09:30:10.238Z,5.00
2023-03-08T09:32:55.897Z,4.80
2023-03-08T09:35:41.299Z,4.80
2023-03-08T09:38:28.367Z,5.10
2023-03-08T09:41:21.829Z,5.20
2023-03-08T09:44:14.118Z,5.00
2023-03-08T09:47:01.225Z,5.20
2023-03-08T09:49:48.202Z,4.80
2023-03-08T09:52:38.387Z,5.00
2023-03-08T09:55:32.904Z,5.20
2023-03-08T09:58:21.739Z,5.50
2023-03-08T10:01:17.543Z,5.80
2023-03-08T10:04:15.233Z,6.00
2023-03-08T10:07:09.496Z,6.20
2023-03-08T10:10:02.660Z,6.00
2023-03-08T10:12:53.850Z,5.90
2023-03-08T10:15:42.059Z,5.80
2023-03-08T10:18:30.258Z,6.30
2023-03-08T10:21:19.667Z,7.00
2023-03-08T10:24:12.035Z,7.50
2023-03-08T10:27:00.934Z,7.40
2023-03-08T10:29:52.359Z,7.60
2023-03-08T10:32:41.976Z,7.30
2023-03-08T10:35:31.955Z,7.30
2023-03-08T10:38:17.680Z,7.10
2023-03-08T10:41:04.861Z,7.20
2023-03-08T10:43:51.204Z,7.40
2023-03-08T10:46:45.605Z,6.90
2023-03-08T10:49:30.932Z,6.70
2023-03-08T10:52:21.227Z,6.40
2023-03-08T10:55:10.642Z,6.90
2023-03-08T10:57:56.967Z,7.20
2023-03-08T11:00:43.777Z,7.20
2023-03-08T11:03:31.428Z,7.10
2023-03-08T11:06:16.953Z,7.30
2023-03-08T11:09:03.631Z,7.40
2023-03-08T11:11:49.308Z,7.70
2023-03-08T11:14:35.541Z,7.60
2023-03-08T11:17:23.645Z,7.60
2023-03-08T11:20:16.445Z,7.20
2023-03-08T11:23:07.431Z,6.60
2023-03-08T11:25:56.028Z,6.50
2023-03-08T11:28:47.578Z,6.20
2023-03-08T11:31:35.912Z,6.60
2023-03-08T11:34:34.959Z,6.80
2023-03-08T11:37:26.882Z,7.20
2023-03-08T11:40:21.133Z,7.30
2023-03-08T11:43:14.320Z,6.90
2023-03-08T11:46:02.632Z,6.90
2023-03-08T11:49:05.982Z,7.30
2023-03-08T11:51:53.094Z,7.10
2023-03-08T11:54:47.422Z,7.10
2023-03-08T11:57:35.480Z,7.00
2023-03-08T12:00:23.654Z,6.60
2023-03-08T12:03:13.038Z,6.90
2023-03-08T12:06:01.704Z,7.10
2023-03-08T12:08:49.039Z,7.20
2023-03-08T12:11:38.272Z,7.30
2023-03-08T12:14:26.288Z,7.20
2023-03-08T12:17:17.497Z,7.60
2023-03-08T12:20:07.134Z,7.50
2023-03-08T12:22:54.576Z,7.60
2023-03-08T12:25:41.541Z,7.50
2023-03-08T12:28:31.026Z,7.30
2023-03-08T12:31:27.907Z,7.10
2023-03-08T12:34:15.630Z,7.20
2023-03-08T12:37:01.756Z,7.40
2023-03-08T12:39:55.426Z,7.40
2023-03-08T12:42:41.271Z,7.40
2023-03-08T12:45:30.924Z,7.40
2023-03-08T12:48:22.773Z,7.60
2023-03-08T12:51:19.773Z,7.40
2023-03-08T12:54:05.421Z,7.10
2023-03-08T12:56:52.276Z,6.70
2023-03-08T12:59:39.430Z,6.50
2023-03-08T13:02:30.628Z,6.70
2023-03-08T13:05:21.018Z,6.50
2023-03-08T13:08:17.380Z,6.60
2023-03-08T13:11:05.855Z,6.50
2023-03-08T13:13:52.590Z,6.30
2023-03-08T13:16:38.709Z,6.50
2023-03-08T13:19:28.302Z,6.60
2023-03-08T13:22:19.842Z,6.70
2023-03-08T13:25:08.502Z,6.40
2023-03-08T13:27:58.488Z,6.80
2023-03-08T13:30:47.174Z,6.90
2023-03-08T13:33:36.362Z,6.90
2023-03-08T13:36:24.325Z,6.70
2023-03-08T13:39:17.911Z,6.70
2023-03-08T13:42:07.297Z,6.60
2023-03-08T13:44:52.946Z,6.90
2023-03-08T13:47:39.405Z,6.80
2023-03-08T13:50:27.622Z,7.30
2023-03-08T13:53:17.514Z,7.40
2023-03-08T13:56:04.521Z,7.40
2023-03-08T13:58:51.270Z,7.00
2023-03-08T14:01:46.127Z,7.40
2023-03-08T14:04:35.106Z,7.20
2023-03-08T14:07:22.369Z,7.20
2023-03-08T14:10:14.179Z,7.00
2023-03-08T14:12:59.854Z,7.00
2023-03-08T14:15:49.012Z,7.10
2023-03-08T14:18:36.712Z,7.20
2023-03-08T14:21:23.630Z,7.20
2023-03-08T14:24:17.420Z,7.10
2023-03-08T14:27:05.174Z,7.50
2023-03-08T14:30:04.226Z,7.30
2023-03-08T14:33:00.826Z,7.10
2023-03-08T14:35:53.469Z,6.90
2023-03-08T14:38:39.064Z,7.00
2023-03-08T14:41:32.259Z,6.40
2023-03-08T14:44:20.747Z,5.00
2023-03-08T14:47:10.045Z,4.80
2023-03-08T14:49:56.639Z,5.00
2023-03-08T14:52:44.592Z,4.90
2023-03-08T14:55:31.219Z,4.90
2023-03-08T14:58:17.129Z,5.00
2023-03-08T15:01:04.253Z,5.10
2023-03-08T15:03:49.992Z,5.10
2023-03-08T15:06:39.402Z,4.70
2023-03-08T15:09:26.332Z,4.80
2023-03-08T15:12:12.314Z,4.60
2023-03-08T15:14:58.027Z,4.30
2023-03-08T15:17:45.341Z,4.40
2023-03-08T15:20:31.247Z,4.70
2023-03-08T15:23:19.277Z,4.90
2023-03-08T15:26:05.227Z,5.40
2023-03-08T15:28:50.779Z,5.00
2023-03-08T15:31:36.578Z,4.80
2023-03-08T15:34:26.766Z,5.10
2023-03-08T15:37:13.872Z,5.20
2023-03-08T15:39:59.525Z,5.00
2023-03-08T15:42:45.608Z,4.30
2023-03-08T15:45:31.341Z,4.00
2023-03-08T15:48:17.513Z,4.30
2023-03-08T15:51:05.077Z,3.80
2023-03-08T15:53:51.023Z,3.60
2023-03-08T15:56:36.644Z,3.30
2023-03-08T15:59:22.254Z,3.50
2023-03-08T16:02:11.530Z,3.50
2023-03-08T16:04:58.059Z,3.80
2023-03-08T16:07:45.282Z,4.10
2023-03-08T16:10:33.173Z,4.00
2023-03-08T16:13:19.220Z,4.00
2023-03-08T16:16:05.147Z,4.60
2023-03-08T16:18:50.608Z,4.70
2023-03-08T16:21:35.998Z,3.70
2023-03-08T16:24:23.062Z,3.80
2023-03-08T16:27:08.654Z,4.00
2023-03-08T16:29:54.195Z,3.90
2023-03-08T16:32:39.837Z,3.50
2023-03-08T16:35:25.552Z,3.40
2023-03-08T16:38:11.378Z,3.50
2023-03-08T16:41:11.824Z,3.70
2023-03-08T16:44:00.634Z,3.50
2023-03-08T16:46:46.462Z,3.90
2023-03-08T16:49:32.441Z,4.00
2023-03-08T16:52:18.391Z,3.60
2023-03-08T16:55:05.169Z,3.30
2023-03-08T16:57:52.078Z,3.00
2023-03-08T17:00:38.267Z,3.00
2023-03-08T17:03:24.883Z,3.40
2023-03-08T17:06:12.316Z,3.70
2023-03-08T17:08:58.874Z,3.70
2023-03-08T17:11:46.524Z,3.80
2023-03-08T17:14:34.928Z,3.60
2023-03-08T17:17:20.791Z,3.00
2023-03-08T17:20:07.359Z,3.50
2023-03-08T17:22:53.062Z,3.80
2023-03-08T17:25:41.065Z,3.70
2023-03-08T17:28:26.851Z,3.60
2023-03-08T17:31:15.140Z,3.30
2023-03-08T17:34:00.806Z,3.40
2023-03-08T17:36:46.835Z,3.90
2023-03-08T17:39:32.286Z,3.90
2023-03-08T17:42:18.223Z,4.30
2023-03-08T17:45:06.524Z,3.40
2023-03-08T17:47:55.491Z,3.60
2023-03-08T17:50:41.075Z,3.50
2023-03-08T17:53:27.231Z,3.60
2023-03-08T17:56:15.180Z,3.60
2023-03-08T17:59:01.708Z,3.30
2023-03-08T18:01:47.404Z,3.70
2023-03-08T18:04:34.818Z,3.70
2023-03-08T18:07:21.054Z,3.50
2023-03-08T18:10:07.154Z,3.20
2023-03-08T18:12:53.173Z,3.20
2023-03-08T18:15:38.591Z,3.30
2023-03-08T18:18:24.203Z,3.20
2023-03-08T18:21:14.063Z,3.10
2023-03-08T18:24:00.723Z,3.10
2023-03-08T18:26:46.772Z,3.30
2023-03-08T18:29:33.501Z,3.30
2023-03-08T18:32:19.024Z,3.40
2023-03-08T18:35:05.819Z,3.40
2023-03-08T18:37:52.946Z,3.20
2023-03-08T18:40:38.703Z,3.40
2023-03-08T18:43:25.405Z,3.30
2023-03-08T18:46:12.427Z,3.20
2023-03-08T18:48:58.328Z,3.00
2023-03-08T18:51:44.601Z,2.80
2023-03-08T18:54:31.708Z,2.70
2023-03-08T18:57:17.151Z,2.90
2023-03-08T19:00:05.390Z,2.90
2023-03-08T19:02:51.035Z,3.10
2023-03-08T19:05:36.696Z,2.90
2023-03-08T19:08:23.032Z,3.30
2023-03-08T19:11:15.330Z,3.80
2023-03-08T19:14:01.370Z,3.60
2023-03-08T19:16:46.858Z,4.00
2023-03-08T19:19:32.628Z,4.00
2023-03-08T19:22:18.495Z,3.80
2023-03-08T19:25:06.047Z,3.80
2023-03-08T19:27:53.021Z,3.80
2023-03-08T19:30:38.487Z,3.40
2023-03-08T19:33:30.897Z,3.50
2023-03-08T19:36:17.683Z,3.60
2023-03-08T19:39:04.167Z,3.40
2023-03-08T19:41:55.314Z,3.40
2023-03-08T19:44:44.400Z,3.90
2023-03-08T19:47:30.194Z,4.20
2023-03-08T19:50:16.025Z,4.00
2023-03-08T19:53:01.671Z,3.80
2023-03-08T19:55:50.531Z,3.80
2023-03-08T19:58:36.227Z,3.80
2023-03-08T20:01:23.905Z,4.00
2023-03-08T20:04:14.754Z,3.80
2023-03-08T20:07:02.020Z,3.90
2023-03-08T20:09:51.798Z,4.10
2023-03-08T20:12:37.716Z,3.80
2023-03-08T20:15:24.697Z,3.60
2023-03-08T20:18:12.548Z,3.10
2023-03-08T20:21:01.231Z,3.10
2023-03-08T20:23:55.611Z,3.30
2023-03-08T20:26:42.449Z,3.10
2023-03-08T20:29:37.157Z,2.70
2023-03-08T20:32:25.685Z,3.00
2023-03-08T20:35:13.994Z,2.90
2023-03-08T20:38:03.623Z,2.60
2023-03-08T20:40:57.478Z,2.80
2023-03-08T20:43:43.802Z,3.00
2023-03-08T20:46:33.733Z,3.00
2023-03-08T20:49:23.066Z,2.80
2023-03-08T20:52:16.317Z,2.70
2023-03-08T20:55:02.939Z,2.80
2023-03-08T20:57:53.424Z,2.60
2023-03-08T21:00:41.507Z,2.50
2023-03-08T21:03:30.131Z,2.70
2023-03-08T21:06:19.027Z,3.00
2023-03-08T21:09:06.101Z,3.00
2023-03-08T21:11:52.395Z,2.80
2023-03-08T21:14:38.333Z,2.50
2023-03-08T21:17:26.036Z,2.90
2023-03-08T21:20:12.504Z,2.90
2023-03-08T21:22:58.660Z,3.20
2023-03-08T21:25:45.889Z,3.10
2023-03-08T21:28:31.916Z,2.60
2023-03-08T21:31:19.952Z,2.70
2023-03-08T21:34:06.763Z,2.80
2023-03-08T21:36:52.870Z,2.30
2023-03-08T21:39:38.553Z,2.40
2023-03-08T21:42:25.804Z,2.50
2023-03-08T21:45:12.142Z,2.50
2023-03-08T21:47:59.391Z,2.50
2023-03-08T21:50:44.761Z,2.30
2023-03-08T21:53:30.564Z,2.30
2023-03-08T21:56:18.150Z,2.40
2023-03-08T21:59:05.371Z,2.60
2023-03-08T22:01:53.469Z,2.50
2023-03-08T22:04:39.377Z,2.70
2023-03-08T22:07:24.945Z,2.60
2023-03-08T22:10:13.988Z,2.80
2023-03-08T22:12:59.677Z,3.00
2023-03-08T22:15:46.948Z,3.10
2023-03-08T22:18:32.716Z,2.30
2023-03-08T22:21:18.666Z,2.40
2023-03-08T22:24:04.418Z,2.50
2023-03-08T22:26:50.137Z,2.40
2023-03-08T22:29:35.884Z,2.40
2023-03-08T22:32:23.555Z,2.50
2023-03-08T22:35:10.795Z,2.70
2023-03-08T22:37:56.363Z,2.70
2023-03-08T22:40:42.373Z,2.70
2023-03-08T22:43:28.589Z,3.00
2023-03-08T22:46:16.947Z,2.60
2023-03-08T22:49:07.137Z,2.60
2023-03-08T22:51:53.144Z,2.80
2023-03-08T22:54:39.183Z,3.10
2023-03-08T22:57:24.770Z,3.60
2023-03-08T23:00:14.420Z,3.40
2023-03-08T23:03:00.180Z,3.70
2023-03-08T23:05:47.578Z,3.80
2023-03-08T23:08:33.662Z,3.90
2023-03-08T23:11:19.444Z,3.80
2023-03-08T23:14:06.481Z,3.60
2023-03-08T23:16:52.533Z,3.60
2023-03-08T23:19:38.734Z,3.80
2023-03-08T23:22:25.808Z,3.80
2023-03-08T23:25:11.708Z,3.70
2023-03-08T23:27:57.446Z,3.80
2023-03-08T23:30:43.380Z,3.70
2023-03-08T23:33:28.996Z,3.60
2023-03-08T23:36:16.665Z,3.60
2023-03-08T23:39:04.234Z,3.70
2023-03-08T23:41:50.066Z,3.80
2023-03-08T23:44:36.178Z,3.50
2023-03-08T23:47:21.855Z,3.50
2023-03-08T23:50:08.963Z,3.50
2023-03-08T23:52:54.590Z,3.90
2023-03-08T23:55:41.743Z,3.90
2023-03-08T23:58:27.900Z,3.80
